Time;durP1;ratioP1;P1;durP2;ratioP2;P2;SDS_P1;SDS_P2;PMS_P1;PMS_P2;Temp;Humidity;BMP_temperature;BMP_pressure;BME280_temperature;BME280_humidity;BME280_pressure;Samples;Min_cycle;Max_cycle;Signal;HPM_P1;HPM_P2
2022/12/12 00:01:25;;;;;;;;;;;3.80;1.00;;;;;;6156861;23;19955;-77
2022/12/12 00:03:51;;;;;;;;;;;3.80;1.00;;;;;;6156754;23;19947;-77
2022/12/12 00:06:17;;;;;;;;;;;3.70;1.00;;;;;;6157632;23;19909;-77
2022/12/12 00:08:42;;;;;;;;;;;3.70;1.00;;;;;;6157021;23;20383;-78
2022/12/12 00:11:08;;;;;;;;;;;3.60;1.00;;;;;;6156915;23;19932;-76
2022/12/12 00:13:35;;;;;;;;;;;3.50;1.00;;;;;;6157001;23;19912;-76
2022/12/12 00:16:02;;;;;;;;;;;3.40;1.00;;;;;;6156999;23;19911;-77
2022/12/12 00:18:28;;;;;;;;;;;3.50;1.00;;;;;;6156904;23;20295;-76
2022/12/12 00:20:54;;;;;;;;;;;3.40;1.00;;;;;;6157194;23;19931;-76
2022/12/12 00:23:20;;;;;;;;;;;3.30;1.00;;;;;;6156994;23;19948;-74
2022/12/12 00:25:53;;;;;;;;;;;3.40;1.00;;;;;;6156898;23;19928;-77
2022/12/12 00:28:19;;;;;;;;;;;3.30;1.00;;;;;;6157152;23;19912;-76
2022/12/12 00:30:44;;;;;;;;;;;3.30;1.00;;;;;;6156675;23;19905;-76
2022/12/12 00:33:10;;;;;;;;;;;3.20;1.00;;;;;;6156832;23;19980;-75
2022/12/12 00:35:35;;;;;;;;;;;3.30;9.80;;;;;;6156659;23;19916;-76
2022/12/12 00:38:01;;;;;;;;;;;3.50;4.40;;;;;;6156721;23;19984;-76
2022/12/12 00:40:27;;;;;;;;;;;3.60;1.00;;;;;;6156765;23;19909;-75
2022/12/12 00:42:52;;;;;;;;;;;3.60;1.00;;;;;;6156765;23;19932;-77
2022/12/12 00:45:18;;;;;;;;;;;3.30;1.00;;;;;;6157755;23;19904;-75
2022/12/12 00:47:43;;;;;;;;;;;3.20;1.00;;;;;;6158586;23;19904;-77
2022/12/12 00:50:09;;;;;;;;;;;3.30;1.00;;;;;;6158826;23;20239;-76
2022/12/12 00:52:34;;;;;;;;;;;3.20;1.00;;;;;;6159168;23;19983;-77
2022/12/12 00:55:00;;;;;;;;;;;3.10;1.00;;;;;;6159231;23;19911;-76
2022/12/12 00:57:25;;;;;;;;;;;3.10;14.00;;;;;;6158797;23;19956;-76
2022/12/12 00:59:51;;;;;;;;;;;3.10;29.60;;;;;;6158622;23;19992;-77
2022/12/12 01:02:17;;;;;;;;;;;3.10;31.40;;;;;;6158600;23;19955;-76
2022/12/12 01:04:43;;;;;;;;;;;3.10;52.20;;;;;;6158498;23;19916;-77
2022/12/12 01:07:09;;;;;;;;;;;3.20;96.50;;;;;;6158587;23;20239;-75
2022/12/12 01:09:34;;;;;;;;;;;3.40;99.90;;;;;;6158652;23;19952;-75
2022/12/12 01:12:00;;;;;;;;;;;3.30;1.00;;;;;;6158501;23;19911;-77
2022/12/12 01:14:26;;;;;;;;;;;3.50;37.30;;;;;;6158777;23;19905;-76
2022/12/12 01:16:51;;;;;;;;;;;3.60;1.00;;;;;;6158799;23;20328;-76
2022/12/12 01:19:17;;;;;;;;;;;3.60;1.00;;;;;;6158473;23;19908;-76
2022/12/12 01:21:43;;;;;;;;;;;3.70;1.00;;;;;;6158937;23;19979;-75
2022/12/12 01:24:08;;;;;;;;;;;3.80;1.00;;;;;;6158751;23;20247;-76
2022/12/12 01:26:34;;;;;;;;;;;3.80;1.00;;;;;;6158266;23;19904;-77
2022/12/12 01:29:00;;;;;;;;;;;3.70;1.00;;;;;;6158333;23;19980;-76
2022/12/12 01:31:26;;;;;;;;;;;3.60;1.00;;;;;;6158251;23;19904;-76
2022/12/12 01:33:51;;;;;;;;;;;3.60;1.00;;;;;;6156414;23;19987;-76
2022/12/12 01:36:19;;;;;;;;;;;3.80;1.00;;;;;;6158335;23;19916;-76
2022/12/12 01:38:46;;;;;;;;;;;3.60;1.00;;;;;;6156789;23;19909;-76
2022/12/12 01:41:11;;;;;;;;;;;3.60;1.00;;;;;;6158171;23;20283;-76
2022/12/12 01:43:37;;;;;;;;;;;3.70;1.00;;;;;;6158442;23;19963;-76
2022/12/12 01:46:02;;;;;;;;;;;3.80;1.00;;;;;;6158223;23;19905;-76
2022/12/12 01:48:37;;;;;;;;;;;3.70;1.00;;;;;;6156404;23;19908;-77
2022/12/12 01:51:08;;;;;;;;;;;3.80;1.00;;;;;;6158239;23;19932;-76
2022/12/12 01:53:34;;;;;;;;;;;3.80;1.00;;;;;;6158518;23;20442;-77
2022/12/12 01:56:01;;;;;;;;;;;3.70;1.00;;;;;;6158031;23;19940;-76
2022/12/12 01:58:28;;;;;;;;;;;3.70;1.00;;;;;;6157666;23;19904;-75
2022/12/12 02:00:53;;;;;;;;;;;3.80;1.00;;;;;;6158279;23;19905;-77
2022/12/12 02:03:19;;;;;;;;;;;3.90;1.00;;;;;;6157951;23;19909;-76
2022/12/12 02:05:44;;;;;;;;;;;3.90;1.00;;;;;;6157886;23;19929;-76
2022/12/12 02:08:11;;;;;;;;;;;3.80;99.90;;;;;;6156328;23;19905;-76
2022/12/12 02:10:37;;;;;;;;;;;3.30;99.90;;;;;;6158169;23;20319;-76
2022/12/12 02:13:07;;;;;;;;;;;3.20;1.00;;;;;;6156323;23;19905;-76
2022/12/12 02:15:43;;;;;;;;;;;3.10;1.00;;;;;;6158054;23;19936;-75
2022/12/12 02:18:11;;;;;;;;;;;3.30;1.00;;;;;;6158284;23;20351;-76
2022/12/12 02:20:43;;;;;;;;;;;3.40;1.00;;;;;;6157875;23;19976;-76
2022/12/12 02:23:17;;;;;;;;;;;3.20;1.00;;;;;;6157633;23;19904;-76
2022/12/12 02:25:43;;;;;;;;;;;3.00;1.00;;;;;;6157876;23;19932;-76
2022/12/12 02:28:26;;;;;;;;;;;3.10;1.00;;;;;;6158183;23;19905;-75
2022/12/12 02:31:01;;;;;;;;;;;3.20;1.00;;;;;;6157690;23;19932;-77
2022/12/12 02:33:35;;;;;;;;;;;3.00;1.00;;;;;;6157615;23;19912;-74
2022/12/12 02:36:08;;;;;;;;;;;2.90;1.00;;;;;;6157531;23;19923;-76
2022/12/12 02:38:54;;;;;;;;;;;2.90;1.70;;;;;;6157311;23;19979;-77
2022/12/12 02:41:30;;;;;;;;;;;3.00;17.80;;;;;;6111938;23;20386;-76
2022/12/12 02:44:14;;;;;;;;;;;3.20;1.00;;;;;;6157594;23;19909;-76
2022/12/12 02:46:49;;;;;;;;;;;3.10;1.00;;;;;;6156129;23;20295;-76
2022/12/12 02:49:24;;;;;;;;;;;3.00;1.00;;;;;;6157692;23;19941;-76
2022/12/12 02:51:50;;;;;;;;;;;2.80;9.20;;;;;;6157624;23;19980;-76
2022/12/12 02:54:17;;;;;;;;;;;2.90;99.90;;;;;;6158065;23;19970;-76
2022/12/12 02:56:45;;;;;;;;;;;2.90;85.80;;;;;;6158067;23;20327;-75
2022/12/12 02:59:13;;;;;;;;;;;2.90;40.10;;;;;;6157385;23;19905;-76
2022/12/12 03:01:49;;;;;;;;;;;3.00;99.90;;;;;;6157484;23;20383;-77
2022/12/12 03:10:17;;;;;;;;;;;2.80;27.50;;;;;;6157188;23;19911;-77
2022/12/12 03:12:59;;;;;;;;;;;2.90;99.90;;;;;;6141517;23;20251;-75
2022/12/12 03:15:43;;;;;;;;;;;3.10;99.90;;;;;;6155464;23;19904;-76
2022/12/12 03:18:21;;;;;;;;;;;2.90;41.20;;;;;;6157398;23;19905;-77
2022/12/12 03:20:53;;;;;;;;;;;2.80;67.00;;;;;;6157875;23;19939;-75
2022/12/12 03:23:23;;;;;;;;;;;2.80;99.90;;;;;;6157511;23;19987;-77
2022/12/12 03:25:57;;;;;;;;;;;2.50;99.90;;;;;;6157280;23;19983;-76
2022/12/12 03:28:28;;;;;;;;;;;2.40;99.90;;;;;;6157522;23;19905;-76
2022/12/12 03:30:55;;;;;;;;;;;2.20;99.90;;;;;;6157557;23;19905;-78
2022/12/12 03:33:24;;;;;;;;;;;2.30;99.90;;;;;;6156234;23;19904;-76
2022/12/12 03:36:02;;;;;;;;;;;2.40;99.90;;;;;;6156873;23;19916;-77
2022/12/12 03:38:31;;;;;;;;;;;2.50;99.90;;;;;;6157164;23;19908;-76
2022/12/12 03:41:01;;;;;;;;;;;2.80;99.90;;;;;;6157118;23;20287;-76
2022/12/12 03:43:29;;;;;;;;;;;2.80;99.90;;;;;;6156947;23;20347;-77
2022/12/12 03:46:02;;;;;;;;;;;3.00;99.90;;;;;;6157724;23;19932;-77
2022/12/12 03:48:34;;;;;;;;;;;3.00;99.90;;;;;;6157299;23;19915;-76
2022/12/12 03:51:02;;;;;;;;;;;3.10;99.90;;;;;;6157149;23;19912;-75
2022/12/12 03:53:35;;;;;;;;;;;3.10;99.90;;;;;;6157283;23;19909;-76
2022/12/12 03:56:11;;;;;;;;;;;3.00;73.20;;;;;;6156838;23;19951;-77
2022/12/12 03:58:50;;;;;;;;;;;2.70;1.00;;;;;;6157415;23;19905;-76
2022/12/12 04:01:18;;;;;;;;;;;2.40;43.60;;;;;;6157011;23;19943;-76
2022/12/12 04:04:06;;;;;;;;;;;2.20;99.90;;;;;;6156894;23;19916;-75
2022/12/12 04:06:42;;;;;;;;;;;2.10;99.90;;;;;;6145073;23;19947;-77
2022/12/12 04:15:13;;;;;;;;;;;2.00;99.90;;;;;;6156432;23;19916;-75
2022/12/12 04:17:43;;;;;;;;;;;1.90;1.00;;;;;;6156764;23;19908;-76
2022/12/12 04:23:15;;;;;;;;;;;2.00;1.00;;;;;;6156526;23;19967;-75
2022/12/12 04:28:38;;;;;;;;;;;2.40;1.00;;;;;;6156728;23;19955;-76
2022/12/12 04:31:04;;;;;;;;;;;2.60;1.00;;;;;;6157006;23;19905;-77
2022/12/12 04:33:34;;;;;;;;;;;2.30;1.00;;;;;;6156787;23;19940;-76
2022/12/12 04:36:00;;;;;;;;;;;2.30;1.00;;;;;;6156138;23;19917;-76
2022/12/12 04:38:26;;;;;;;;;;;2.40;1.00;;;;;;6156931;23;20333;-76
2022/12/12 04:40:54;;;;;;;;;;;2.50;1.00;;;;;;6156736;23;19908;-76
2022/12/12 04:43:22;;;;;;;;;;;2.30;1.00;;;;;;6156911;23;19909;-76
2022/12/12 04:45:52;;;;;;;;;;;2.20;1.00;;;;;;6156799;23;19909;-77
2022/12/12 04:48:21;;;;;;;;;;;2.20;1.00;;;;;;6157034;23;19909;-76
2022/12/12 04:50:48;;;;;;;;;;;2.10;1.00;;;;;;6157203;23;19982;-76
2022/12/12 04:53:14;;;;;;;;;;;2.10;1.00;;;;;;6157111;23;19904;-75
2022/12/12 04:55:42;;;;;;;;;;;2.20;1.00;;;;;;6156782;23;19904;-77
2022/12/12 04:58:07;;;;;;;;;;;2.20;1.00;;;;;;6156977;23;19940;-76
2022/12/12 05:00:38;;;;;;;;;;;2.10;1.00;;;;;;6156798;23;19911;-76
2022/12/12 05:03:14;;;;;;;;;;;2.10;1.00;;;;;;6156689;23;19905;-75
2022/12/12 05:06:00;;;;;;;;;;;2.20;1.00;;;;;;6156675;23;19904;-76
2022/12/12 05:08:30;;;;;;;;;;;2.40;1.00;;;;;;6157214;23;19954;-76
2022/12/12 05:10:58;;;;;;;;;;;2.40;1.00;;;;;;6157017;23;19912;-76
2022/12/12 05:13:27;;;;;;;;;;;2.50;1.00;;;;;;6156626;23;19905;-76
2022/12/12 05:15:54;;;;;;;;;;;2.60;1.00;;;;;;6156802;23;19904;-75
2022/12/12 05:18:20;;;;;;;;;;;2.30;99.90;;;;;;6156605;23;19905;-76
2022/12/12 05:20:46;;;;;;;;;;;2.60;1.00;;;;;;6156601;23;19904;-76
2022/12/12 05:23:11;;;;;;;;;;;2.70;1.00;;;;;;6156670;23;19904;-77
2022/12/12 05:25:37;;;;;;;;;;;2.90;1.00;;;;;;6156674;23;19963;-76
2022/12/12 05:28:03;;;;;;;;;;;2.90;1.00;;;;;;6156703;23;19905;-76
2022/12/12 05:30:28;;;;;;;;;;;2.80;99.90;;;;;;6156521;23;19905;-75
2022/12/12 05:32:54;;;;;;;;;;;2.50;99.90;;;;;;6158357;23;20386;-76
2022/12/12 05:35:20;;;;;;;;;;;2.50;99.90;;;;;;6158291;23;19964;-76
2022/12/12 05:37:45;;;;;;;;;;;2.40;99.90;;;;;;6158501;23;19904;-76
2022/12/12 05:40:11;;;;;;;;;;;2.40;99.90;;;;;;6158263;23;19980;-76
2022/12/12 05:42:37;;;;;;;;;;;2.50;1.00;;;;;;6158207;23;20441;-75
2022/12/12 05:45:04;;;;;;;;;;;2.40;99.90;;;;;;6156506;23;19987;-76
2022/12/12 05:47:29;;;;;;;;;;;1.90;99.90;;;;;;6157457;23;19983;-76
2022/12/12 05:49:55;;;;;;;;;;;2.00;1.00;;;;;;6158371;23;20353;-76
2022/12/12 05:52:20;;;;;;;;;;;2.00;1.00;;;;;;6158222;23;19983;-76
2022/12/12 05:54:46;;;;;;;;;;;2.10;1.00;;;;;;6158104;23;20221;-76
2022/12/12 05:57:12;;;;;;;;;;;2.20;1.00;;;;;;6158655;23;19905;-77
2022/12/12 05:59:37;;;;;;;;;;;2.30;1.00;;;;;;6158728;23;20220;-76
2022/12/12 06:02:03;;;;;;;;;;;2.40;1.00;;;;;;6156434;23;19912;-76
2022/12/12 06:04:28;;;;;;;;;;;2.50;1.00;;;;;;6158595;23;20357;-76
2022/12/12 06:06:54;;;;;;;;;;;2.40;99.90;;;;;;6158361;23;19904;-76
2022/12/12 06:09:19;;;;;;;;;;;2.40;99.90;;;;;;6158067;23;20239;-76
2022/12/12 06:11:45;;;;;;;;;;;2.60;99.90;;;;;;6157921;23;19952;-76
2022/12/12 06:14:11;;;;;;;;;;;2.40;99.90;;;;;;6157836;23;20240;-76
2022/12/12 06:16:36;;;;;;;;;;;2.40;99.90;;;;;;6157944;23;19905;-75
2022/12/12 06:19:02;;;;;;;;;;;2.70;99.90;;;;;;6157936;23;19912;-76
2022/12/12 06:21:28;;;;;;;;;;;2.50;99.90;;;;;;6156092;23;20224;-76
2022/12/12 06:23:54;;;;;;;;;;;2.40;99.90;;;;;;6157770;23;19936;-76
2022/12/12 06:26:20;;;;;;;;;;;2.40;99.90;;;;;;6157548;23;19960;-75
2022/12/12 06:28:46;;;;;;;;;;;2.50;99.90;;;;;;6157729;23;20236;-76
2022/12/12 06:31:12;;;;;;;;;;;2.60;99.90;;;;;;6157945;23;19904;-76
2022/12/12 06:33:38;;;;;;;;;;;2.70;99.90;;;;;;6157914;23;19916;-76
2022/12/12 06:36:04;;;;;;;;;;;2.70;99.90;;;;;;6155337;23;20267;-76
2022/12/12 06:38:30;;;;;;;;;;;2.50;99.90;;;;;;6157853;23;19905;-75
2022/12/12 06:40:56;;;;;;;;;;;2.30;99.90;;;;;;6158116;23;19955;-77
2022/12/12 06:43:21;;;;;;;;;;;2.20;99.90;;;;;;6158046;23;20382;-77
2022/12/12 06:45:47;;;;;;;;;;;2.20;99.90;;;;;;6158144;23;19909;-77
2022/12/12 06:48:14;;;;;;;;;;;2.20;99.90;;;;;;6157775;23;19912;-76
2022/12/12 06:50:40;;;;;;;;;;;2.30;99.90;;;;;;6157647;23;19905;-76
2022/12/12 06:53:06;;;;;;;;;;;2.40;99.90;;;;;;6157358;23;19911;-75
2022/12/12 06:55:31;;;;;;;;;;;2.20;99.90;;;;;;6157650;23;19979;-76
2022/12/12 06:57:57;;;;;;;;;;;2.40;99.90;;;;;;6157647;23;20359;-76
2022/12/12 07:00:23;;;;;;;;;;;2.30;99.90;;;;;;6157431;23;19905;-77
2022/12/12 07:02:48;;;;;;;;;;;2.30;99.90;;;;;;6157581;23;20324;-76
2022/12/12 07:05:14;;;;;;;;;;;2.30;99.90;;;;;;6157462;23;19909;-75
2022/12/12 07:07:39;;;;;;;;;;;2.10;99.90;;;;;;6157723;23;19905;-76
2022/12/12 07:10:05;;;;;;;;;;;2.10;99.90;;;;;;6157433;23;19912;-77
2022/12/12 07:12:31;;;;;;;;;;;2.10;99.90;;;;;;6155994;23;19934;-75
2022/12/12 07:14:56;;;;;;;;;;;2.10;99.90;;;;;;6157317;23;19912;-77
2022/12/12 07:17:22;;;;;;;;;;;2.10;99.90;;;;;;6157508;23;19955;-76
2022/12/12 07:19:47;;;;;;;;;;;2.20;1.00;;;;;;6157323;23;20247;-77
2022/12/12 07:22:13;;;;;;;;;;;2.20;99.90;;;;;;6157054;23;19912;-75
2022/12/12 07:24:39;;;;;;;;;;;2.00;99.90;;;;;;6157366;23;20322;-76
2022/12/12 07:27:05;;;;;;;;;;;2.00;1.00;;;;;;6157146;23;19905;-77
2022/12/12 07:29:30;;;;;;;;;;;2.00;1.00;;;;;;6157155;23;19911;-77
2022/12/12 07:31:56;;;;;;;;;;;2.00;1.00;;;;;;6157182;23;19905;-75
2022/12/12 07:34:22;;;;;;;;;;;2.00;1.00;;;;;;6157106;23;20630;-77
2022/12/12 07:36:48;;;;;;;;;;;2.10;1.00;;;;;;6157359;23;19912;-76
2022/12/12 07:39:13;;;;;;;;;;;2.10;1.00;;;;;;6157183;23;19908;-76
2022/12/12 07:41:39;;;;;;;;;;;2.20;1.00;;;;;;6157019;23;19955;-77
2022/12/12 07:44:05;;;;;;;;;;;2.20;1.00;;;;;;6157725;23;19941;-75
2022/12/12 07:46:31;;;;;;;;;;;2.20;1.00;;;;;;6157482;23;19911;-77
2022/12/12 07:48:56;;;;;;;;;;;2.10;1.00;;;;;;6157140;23;20245;-76
2022/12/12 07:51:22;;;;;;;;;;;2.20;1.00;;;;;;6155603;23;20346;-77
2022/12/12 07:53:47;;;;;;;;;;;2.20;1.00;;;;;;6156723;23;19915;-76
2022/12/12 07:56:14;;;;;;;;;;;2.20;1.00;;;;;;6157392;23;20283;-76
2022/12/12 07:58:40;;;;;;;;;;;2.20;1.00;;;;;;6155382;23;19987;-74
2022/12/12 08:01:13;;;;;;;;;;;2.30;1.00;;;;;;6157307;23;20283;-76
2022/12/12 08:03:38;;;;;;;;;;;2.20;1.00;;;;;;6155131;23;20282;-76
2022/12/12 08:06:05;;;;;;;;;;;2.20;1.00;;;;;;6155483;23;19929;-75
2022/12/12 08:08:31;;;;;;;;;;;2.20;1.00;;;;;;6157063;23;19955;-76
2022/12/12 08:10:56;;;;;;;;;;;2.10;1.00;;;;;;6156911;23;19909;-75
2022/12/12 08:13:22;;;;;;;;;;;2.20;1.00;;;;;;6157104;23;19905;-77
2022/12/12 08:15:47;;;;;;;;;;;2.10;1.00;;;;;;6156925;23;19909;-76
2022/12/12 08:18:13;;;;;;;;;;;2.00;1.00;;;;;;6157075;23;20301;-75
2022/12/12 08:20:40;;;;;;;;;;;2.10;1.00;;;;;;6155402;23;19912;-76
2022/12/12 08:23:06;;;;;;;;;;;2.10;1.00;;;;;;6156786;23;19904;-76
2022/12/12 08:25:33;;;;;;;;;;;2.20;1.00;;;;;;6156905;23;19928;-77
2022/12/12 08:27:59;;;;;;;;;;;2.30;1.00;;;;;;6157128;23;19948;-77
2022/12/12 08:30:25;;;;;;;;;;;2.40;1.00;;;;;;6157144;23;20346;-75
2022/12/12 08:32:50;;;;;;;;;;;2.30;1.00;;;;;;6156866;23;19909;-76
2022/12/12 08:35:16;;;;;;;;;;;2.30;1.00;;;;;;6154620;23;19916;-76
2022/12/12 08:37:41;;;;;;;;;;;2.20;1.00;;;;;;6155645;23;19928;-77
2022/12/12 08:40:07;;;;;;;;;;;2.20;1.00;;;;;;6157165;23;19967;-76
2022/12/12 08:42:33;;;;;;;;;;;2.20;1.00;;;;;;6156866;23;19980;-76
2022/12/12 08:44:58;;;;;;;;;;;2.30;1.00;;;;;;6156734;23;19964;-76
2022/12/12 08:47:24;;;;;;;;;;;2.40;1.00;;;;;;6156740;23;19905;-76
2022/12/12 08:49:49;;;;;;;;;;;2.50;1.00;;;;;;6156649;23;20236;-76
2022/12/12 08:52:15;;;;;;;;;;;2.40;1.00;;;;;;6155166;23;19920;-76
2022/12/12 08:54:41;;;;;;;;;;;2.30;1.00;;;;;;6155150;23;19936;-77
2022/12/12 08:57:06;;;;;;;;;;;2.50;1.00;;;;;;6156647;23;20248;-76
2022/12/12 08:59:32;;;;;;;;;;;2.50;1.00;;;;;;6156769;23;19905;-76
2022/12/12 09:01:57;;;;;;;;;;;2.60;1.00;;;;;;6156606;23;20336;-75
2022/12/12 09:04:23;;;;;;;;;;;2.70;1.00;;;;;;6156448;23;19908;-76
2022/12/12 09:06:49;;;;;;;;;;;2.70;1.00;;;;;;6157828;23;20313;-77
2022/12/12 09:09:14;;;;;;;;;;;2.70;1.00;;;;;;6158906;23;19908;-76
2022/12/12 09:11:40;;;;;;;;;;;2.60;1.00;;;;;;6159014;23;19904;-76
2022/12/12 09:14:05;;;;;;;;;;;2.60;1.00;;;;;;6158528;23;20391;-76
2022/12/12 09:16:31;;;;;;;;;;;2.60;1.00;;;;;;6158578;23;19904;-77
2022/12/12 09:18:56;;;;;;;;;;;2.50;1.00;;;;;;6158465;23;19904;-77
2022/12/12 09:21:22;;;;;;;;;;;2.60;1.00;;;;;;6158486;23;19905;-77
2022/12/12 09:23:48;;;;;;;;;;;2.60;1.00;;;;;;6158724;23;19964;-75
2022/12/12 09:26:13;;;;;;;;;;;2.50;1.00;;;;;;6158685;23;19953;-76
2022/12/12 09:28:39;;;;;;;;;;;2.50;99.90;;;;;;6158524;23;19980;-77
2022/12/12 09:31:06;;;;;;;;;;;2.50;99.90;;;;;;6158406;23;20283;-76
2022/12/12 09:33:31;;;;;;;;;;;2.50;99.90;;;;;;6158436;23;19905;-76
2022/12/12 09:35:58;;;;;;;;;;;2.70;1.00;;;;;;6157866;23;19923;-77
2022/12/12 09:38:24;;;;;;;;;;;2.80;1.00;;;;;;6158537;23;19905;-76
2022/12/12 09:40:54;;;;;;;;;;;2.60;99.90;;;;;;6157949;23;19909;-76
2022/12/12 09:43:22;;;;;;;;;;;2.50;99.90;;;;;;6156830;23;19908;-75
2022/12/12 09:45:49;;;;;;;;;;;2.60;99.90;;;;;;6158444;23;19909;-76
2022/12/12 09:48:24;;;;;;;;;;;2.70;99.90;;;;;;6158449;23;19913;-77
2022/12/12 09:50:50;;;;;;;;;;;2.80;99.90;;;;;;6156674;23;19943;-77
2022/12/12 09:53:17;;;;;;;;;;;2.70;99.90;;;;;;6158360;23;19904;-76
2022/12/12 09:56:01;;;;;;;;;;;2.50;99.90;;;;;;6158236;23;19904;-76
2022/12/12 09:58:34;;;;;;;;;;;2.50;99.90;;;;;;6158148;23;19905;-74
2022/12/12 10:01:08;;;;;;;;;;;2.60;99.90;;;;;;6158185;23;19912;-76
2022/12/12 10:03:52;;;;;;;;;;;2.70;99.90;;;;;;6158120;23;19908;-77
2022/12/12 10:06:19;;;;;;;;;;;3.00;99.90;;;;;;6158092;23;19909;-77
2022/12/12 10:08:53;;;;;;;;;;;3.00;99.90;;;;;;6157902;23;19905;-76
2022/12/12 10:14:16;;;;;;;;;;;3.30;73.40;;;;;;6157782;23;19912;-77
2022/12/12 10:16:42;;;;;;;;;;;3.30;1.00;;;;;;6157907;23;19932;-76
2022/12/12 10:19:28;;;;;;;;;;;3.30;1.00;;;;;;6158101;23;19915;-77
2022/12/12 10:21:57;;;;;;;;;;;3.40;1.00;;;;;;6157758;23;19979;-77
2022/12/12 10:24:34;;;;;;;;;;;3.20;1.00;;;;;;6157652;23;20040;-75
2022/12/12 10:27:07;;;;;;;;;;;3.10;1.00;;;;;;6157986;23;19905;-76
2022/12/12 10:29:33;;;;;;;;;;;3.20;1.00;;;;;;6157825;23;19932;-76
2022/12/12 10:32:12;;;;;;;;;;;3.20;1.00;;;;;;6158075;23;19905;-76
2022/12/12 10:34:47;;;;;;;;;;;3.20;1.00;;;;;;6157723;23;19912;-75
2022/12/12 10:37:12;;;;;;;;;;;3.10;1.00;;;;;;6157645;23;19945;-77
2022/12/12 10:39:47;;;;;;;;;;;2.90;1.00;;;;;;6157853;23;19913;-76
2022/12/12 10:42:21;;;;;;;;;;;2.90;1.00;;;;;;6157774;23;19905;-76
2022/12/12 10:44:47;;;;;;;;;;;2.70;1.00;;;;;;6157590;23;19920;-76
2022/12/12 10:47:13;;;;;;;;;;;2.70;1.00;;;;;;6157992;23;19905;-75
2022/12/12 10:49:39;;;;;;;;;;;2.70;1.00;;;;;;6158201;23;20291;-76
2022/12/12 10:52:09;;;;;;;;;;;2.70;1.00;;;;;;6157487;23;19904;-76
2022/12/12 10:54:38;;;;;;;;;;;2.60;1.00;;;;;;6157346;23;19911;-77
2022/12/12 10:57:04;;;;;;;;;;;2.80;1.00;;;;;;6157644;23;19928;-75
2022/12/12 10:59:29;;;;;;;;;;;3.00;1.00;;;;;;6157306;23;20328;-75
2022/12/12 11:01:56;;;;;;;;;;;3.00;1.00;;;;;;6157762;23;20312;-77
2022/12/12 11:04:22;;;;;;;;;;;3.20;1.00;;;;;;6155833;23;19947;-77
2022/12/12 11:06:49;;;;;;;;;;;3.10;1.00;;;;;;6157285;23;19943;-76
2022/12/12 11:09:22;;;;;;;;;;;3.10;1.00;;;;;;6157766;23;19905;-76
2022/12/12 11:12:02;;;;;;;;;;;3.10;1.00;;;;;;6157524;23;19908;-76
2022/12/12 11:14:31;;;;;;;;;;;3.00;1.00;;;;;;6157442;23;20221;-76
2022/12/12 11:16:57;;;;;;;;;;;3.00;1.00;;;;;;6157648;23;20247;-76
2022/12/12 11:19:23;;;;;;;;;;;2.90;1.00;;;;;;6155936;23;19932;-75
2022/12/12 11:21:49;;;;;;;;;;;2.80;1.00;;;;;;6157470;23;19905;-77
2022/12/12 11:24:16;;;;;;;;;;;2.70;1.00;;;;;;6157351;23;20359;-76
2022/12/12 11:26:44;;;;;;;;;;;2.70;1.00;;;;;;6157461;23;19936;-76
2022/12/12 11:29:27;;;;;;;;;;;2.70;1.00;;;;;;6157024;23;19957;-76
2022/12/12 11:31:53;;;;;;;;;;;2.70;1.00;;;;;;6157219;23;19905;-76
2022/12/12 11:34:20;;;;;;;;;;;2.70;1.00;;;;;;6156667;23;19931;-76
2022/12/12 11:36:46;;;;;;;;;;;2.70;1.00;;;;;;6157555;23;19913;-76
2022/12/12 11:39:14;;;;;;;;;;;2.60;1.00;;;;;;6157706;23;19912;-76
2022/12/12 11:41:59;;;;;;;;;;;2.60;1.00;;;;;;6155595;23;20251;-76
2022/12/12 11:44:25;;;;;;;;;;;2.50;1.00;;;;;;6155601;23;19987;-76
2022/12/12 11:46:51;;;;;;;;;;;2.40;1.00;;;;;;6157332;23;19908;-76
2022/12/12 11:49:18;;;;;;;;;;;2.40;1.00;;;;;;6157366;23;19904;-77
2022/12/12 11:51:43;;;;;;;;;;;2.50;1.00;;;;;;6157116;23;19912;-75
2022/12/12 11:54:33;;;;;;;;;;;2.50;1.00;;;;;;6157136;23;19908;-76
2022/12/12 11:57:00;;;;;;;;;;;2.40;1.00;;;;;;6140701;23;19912;-76
2022/12/12 11:59:45;;;;;;;;;;;2.60;1.00;;;;;;6157066;23;19959;-75
2022/12/12 12:02:27;;;;;;;;;;;2.60;99.90;;;;;;6156902;23;19908;-76
2022/12/12 12:05:02;;;;;;;;;;;2.60;1.00;;;;;;6157296;23;19909;-77
2022/12/12 12:07:30;;;;;;;;;;;2.60;99.90;;;;;;6157287;23;19904;-77
2022/12/12 12:10:01;;;;;;;;;;;2.60;99.90;;;;;;6156975;23;19905;-76
2022/12/12 12:12:27;;;;;;;;;;;2.70;1.00;;;;;;6157583;23;19905;-75
2022/12/12 12:14:52;;;;;;;;;;;2.70;99.90;;;;;;6157140;23;19987;-76
2022/12/12 12:17:27;;;;;;;;;;;2.60;99.90;;;;;;6155244;23;19917;-75
2022/12/12 12:20:07;;;;;;;;;;;2.50;99.90;;;;;;6156960;23;19905;-75
2022/12/12 12:22:38;;;;;;;;;;;2.50;1.00;;;;;;6157132;23;19905;-76
2022/12/12 12:25:16;;;;;;;;;;;2.50;99.90;;;;;;6156825;23;19909;-77
2022/12/12 12:27:56;;;;;;;;;;;2.60;1.00;;;;;;6155270;23;20455;-76
2022/12/12 12:30:23;;;;;;;;;;;2.60;1.00;;;;;;6156610;23;19967;-76
2022/12/12 12:32:55;;;;;;;;;;;2.50;99.90;;;;;;6156887;23;19908;-76
2022/12/12 12:35:20;;;;;;;;;;;2.50;1.00;;;;;;6156524;23;19924;-75
2022/12/12 12:37:52;;;;;;;;;;;2.40;1.00;;;;;;6156901;23;19905;-77
2022/12/12 12:40:43;;;;;;;;;;;2.40;1.00;;;;;;6157570;23;20242;-75
2022/12/12 12:43:08;;;;;;;;;;;2.50;1.00;;;;;;6159265;23;19909;-75
2022/12/12 12:45:37;;;;;;;;;;;2.60;1.00;;;;;;6158799;23;20239;-75
2022/12/12 12:48:07;;;;;;;;;;;2.70;99.90;;;;;;6159127;23;19912;-76
2022/12/12 12:50:44;;;;;;;;;;;2.60;99.90;;;;;;6159002;23;19988;-75
2022/12/12 12:53:09;;;;;;;;;;;2.50;99.90;;;;;;6159042;23;19904;-76
2022/12/12 12:55:42;;;;;;;;;;;2.70;99.90;;;;;;6158752;23;19939;-77
2022/12/12 12:58:14;;;;;;;;;;;2.70;99.90;;;;;;6158887;23;20343;-77
2022/12/12 13:00:39;;;;;;;;;;;2.60;99.90;;;;;;6158777;23;19911;-76
2022/12/12 13:03:07;;;;;;;;;;;2.60;99.90;;;;;;6157086;23;19905;-76
2022/12/12 13:05:49;;;;;;;;;;;2.60;99.90;;;;;;6158793;23;19991;-75
2022/12/12 13:08:19;;;;;;;;;;;2.80;99.90;;;;;;6158560;23;19905;-76
2022/12/12 13:10:56;;;;;;;;;;;2.70;99.90;;;;;;6158794;23;19904;-77
2022/12/12 13:13:29;;;;;;;;;;;2.70;99.90;;;;;;6158528;23;19905;-75
2022/12/12 13:15:58;;;;;;;;;;;2.80;99.90;;;;;;6158450;23;19905;-76
2022/12/12 13:18:26;;;;;;;;;;;2.60;99.90;;;;;;6156933;23;20375;-75
2022/12/12 13:21:13;;;;;;;;;;;2.60;99.90;;;;;;6156757;23;19924;-76
2022/12/12 13:23:57;;;;;;;;;;;2.80;99.90;;;;;;6158661;23;19913;-74
2022/12/12 13:26:41;;;;;;;;;;;2.90;99.90;;;;;;6158401;23;19908;-78
2022/12/12 13:29:25;;;;;;;;;;;3.00;99.90;;;;;;6158664;23;19911;-76
2022/12/12 13:32:09;;;;;;;;;;;3.00;99.90;;;;;;6156772;23;19916;-76
2022/12/12 13:34:37;;;;;;;;;;;3.00;99.90;;;;;;6158086;23;19917;-75
2022/12/12 13:37:04;;;;;;;;;;;3.00;99.90;;;;;;6158959;23;19912;-76
2022/12/12 13:39:34;;;;;;;;;;;3.00;99.90;;;;;;6158585;23;19912;-76
2022/12/12 13:42:01;;;;;;;;;;;3.20;99.90;;;;;;6156610;23;20221;-77
2022/12/12 13:44:32;;;;;;;;;;;3.50;99.90;;;;;;6158191;23;19940;-75
2022/12/12 13:46:57;;;;;;;;;;;3.80;99.90;;;;;;6158122;23;19935;-76
2022/12/12 13:49:26;;;;;;;;;;;4.00;99.90;;;;;;6156667;23;19904;-76
2022/12/12 13:52:11;;;;;;;;;;;4.20;99.90;;;;;;6158006;23;19905;-76
2022/12/12 13:54:42;;;;;;;;;;;4.50;99.90;;;;;;6158194;23;19952;-77
2022/12/12 13:57:11;;;;;;;;;;;5.20;99.90;;;;;;6158123;23;19911;-76
2022/12/12 13:59:52;;;;;;;;;;;6.10;99.90;;;;;;6158095;23;19908;-76
2022/12/12 14:02:31;;;;;;;;;;;7.00;99.90;;;;;;6158262;23;19905;-76
2022/12/12 14:05:06;;;;;;;;;;;7.20;91.00;;;;;;6158108;23;19909;-76
2022/12/12 14:07:31;;;;;;;;;;;7.50;94.60;;;;;;6158454;23;19911;-75
2022/12/12 14:09:58;;;;;;;;;;;8.20;81.50;;;;;;6158152;23;20240;-76
2022/12/12 14:12:25;;;;;;;;;;;8.80;33.80;;;;;;6158077;23;19984;-76
2022/12/12 14:14:57;;;;;;;;;;;9.80;20.70;;;;;;6158112;23;19916;-75
2022/12/12 14:17:24;;;;;;;;;;;10.50;1.00;;;;;;6158146;23;19954;-76
2022/12/12 14:19:50;;;;;;;;;;;10.10;1.00;;;;;;6156474;23;19905;-76
2022/12/12 14:22:47;;;;;;;;;;;10.10;1.00;;;;;;6157884;23;19904;-77
2022/12/12 14:25:13;;;;;;;;;;;9.90;1.00;;;;;;6157783;23;20444;-77
2022/12/12 14:27:50;;;;;;;;;;;10.00;1.00;;;;;;6157810;23;19905;-76
2022/12/12 14:30:20;;;;;;;;;;;9.60;1.00;;;;;;6158019;23;19911;-76
2022/12/12 14:33:06;;;;;;;;;;;9.50;1.00;;;;;;6157793;23;19904;-76
2022/12/12 14:35:52;;;;;;;;;;;8.30;10.10;;;;;;6141543;23;19916;-77
2022/12/12 14:38:23;;;;;;;;;;;7.30;29.20;;;;;;6158112;23;19971;-75
2022/12/12 14:40:52;;;;;;;;;;;6.80;38.30;;;;;;6157876;23;19958;-75
2022/12/12 14:43:23;;;;;;;;;;;6.50;61.70;;;;;;6157744;23;19905;-75
2022/12/12 14:45:48;;;;;;;;;;;6.10;64.00;;;;;;6157623;23;20336;-77
2022/12/12 14:48:33;;;;;;;;;;;5.80;88.70;;;;;;6156126;23;19905;-76
2022/12/12 14:51:09;;;;;;;;;;;5.40;88.70;;;;;;6157775;23;19939;-76
2022/12/12 14:53:38;;;;;;;;;;;5.20;99.20;;;;;;6157747;23;19997;-76
2022/12/12 14:56:26;;;;;;;;;;;5.10;99.90;;;;;;6157741;23;19952;-76
2022/12/12 14:58:54;;;;;;;;;;;5.00;99.90;;;;;;6157534;23;20290;-76
2022/12/12 15:01:46;;;;;;;;;;;4.90;99.90;;;;;;6156023;23;19951;-76
2022/12/12 15:04:13;;;;;;;;;;;4.70;99.90;;;;;;6152604;23;20250;-77
2022/12/12 15:06:39;;;;;;;;;;;4.60;99.90;;;;;;6157690;23;19908;-76
2022/12/12 15:09:07;;;;;;;;;;;4.50;99.90;;;;;;6157449;23;19931;-76
2022/12/12 15:11:33;;;;;;;;;;;4.40;99.90;;;;;;6157914;23;19956;-76